Time;durP1;ratioP1;P1;durP2;ratioP2;P2;SDS_P1;SDS_P2;PMS_P1;PMS_P2;Temp;Humidity;BMP_temperature;BMP_pressure;BME280_temperature;BME280_humidity;BME280_pressure;Samples;Min_cycle;Max_cycle;Signal;HPM_P1;HPM_P2
2024/04/11 00:01:10;;;;;;;;;;;11.10;1.00;;;;;;5526314;26;19934;-68
2024/04/11 00:03:36;;;;;;;;;;;11.20;1.00;;;;;;5526399;26;19927;-68
2024/04/11 00:06:02;;;;;;;;;;;11.10;1.00;;;;;;5525423;26;19928;-68
2024/04/11 00:08:27;;;;;;;;;;;10.60;1.00;;;;;;5525997;25;20387;-68
2024/04/11 00:10:53;;;;;;;;;;;10.90;1.00;;;;;;5525807;25;19973;-68
2024/04/11 00:13:18;;;;;;;;;;;11.00;1.00;;;;;;5526280;26;19952;-68
2024/04/11 00:15:45;;;;;;;;;;;10.90;1.00;;;;;;5526607;25;19932;-68
2024/04/11 00:18:10;;;;;;;;;;;11.10;1.00;;;;;;5526326;26;19928;-68
2024/04/11 00:20:36;;;;;;;;;;;11.00;1.00;;;;;;5525910;25;19928;-67
2024/04/11 00:23:01;;;;;;;;;;;11.00;1.00;;;;;;5525905;25;19933;-69
2024/04/11 00:25:27;;;;;;;;;;;10.60;1.00;;;;;;5526093;25;20014;-68
2024/04/11 00:27:53;;;;;;;;;;;11.10;1.00;;;;;;5525996;25;19927;-68
2024/04/11 00:30:19;;;;;;;;;;;11.10;1.00;;;;;;5525852;25;19928;-68
2024/04/11 00:32:45;;;;;;;;;;;11.00;1.00;;;;;;5526000;26;19927;-67
2024/04/11 00:35:10;;;;;;;;;;;10.90;1.00;;;;;;5526363;26;20377;-67
2024/04/11 00:37:36;;;;;;;;;;;11.00;1.00;;;;;;5526029;25;20419;-68
2024/04/11 00:40:02;;;;;;;;;;;10.80;1.00;;;;;;5525706;25;19934;-68
2024/04/11 00:42:28;;;;;;;;;;;10.30;1.00;;;;;;5525628;25;20371;-68
2024/04/11 00:44:53;;;;;;;;;;;10.60;1.00;;;;;;5525876;26;20388;-67
2024/04/11 00:47:20;;;;;;;;;;;10.50;1.00;;;;;;5525704;26;19935;-68
2024/04/11 00:49:47;;;;;;;;;;;10.50;1.00;;;;;;5525186;26;19956;-67
2024/04/11 00:52:13;;;;;;;;;;;10.30;1.00;;;;;;5525450;25;19927;-67
2024/04/11 00:54:39;;;;;;;;;;;10.30;1.00;;;;;;5525641;26;19927;-67
2024/04/11 00:57:08;;;;;;;;;;;10.40;1.00;;;;;;5525479;25;19938;-68
2024/04/11 00:59:39;;;;;;;;;;;10.30;1.00;;;;;;5525193;26;19927;-68
2024/04/11 01:02:06;;;;;;;;;;;10.00;1.00;;;;;;5525398;25;19934;-68
2024/04/11 01:04:33;;;;;;;;;;;10.30;1.00;;;;;;5525432;25;19928;-67
2024/04/11 01:07:08;;;;;;;;;;;10.30;1.00;;;;;;5525343;25;19927;-68
2024/04/11 01:09:34;;;;;;;;;;;10.30;1.00;;;;;;5524959;26;20302;-68
2024/04/11 01:12:00;;;;;;;;;;;10.40;1.00;;;;;;5525356;25;19928;-68
2024/04/11 01:14:26;;;;;;;;;;;10.40;1.00;;;;;;5525449;25;19934;-68
2024/04/11 01:16:52;;;;;;;;;;;10.30;1.00;;;;;;5525253;25;19927;-68
2024/04/11 01:19:19;;;;;;;;;;;10.20;1.00;;;;;;5524266;25;19935;-68
2024/04/11 01:21:45;;;;;;;;;;;10.30;1.00;;;;;;5524983;25;20279;-68
2024/04/11 01:24:13;;;;;;;;;;;10.30;1.00;;;;;;5525084;25;19954;-68
2024/04/11 01:26:39;;;;;;;;;;;9.50;1.00;;;;;;5525032;25;20079;-68
2024/04/11 01:29:06;;;;;;;;;;;10.30;1.00;;;;;;5524552;25;19959;-68
2024/04/11 01:31:31;;;;;;;;;;;10.30;1.00;;;;;;5525137;26;19935;-67
2024/04/11 01:33:57;;;;;;;;;;;10.20;1.00;;;;;;5525236;25;19948;-68
2024/04/11 01:36:23;;;;;;;;;;;10.30;1.00;;;;;;5560548;25;19938;-68
2024/04/11 01:38:49;;;;;;;;;;;10.20;1.00;;;;;;5561718;25;19933;-67
2024/04/11 01:41:14;;;;;;;;;;;10.40;1.00;;;;;;5561909;25;19927;-67
2024/04/11 01:43:40;;;;;;;;;;;10.30;1.00;;;;;;5561948;25;19934;-67
2024/04/11 01:46:07;;;;;;;;;;;9.70;1.00;;;;;;5561986;25;19927;-67
2024/04/11 01:48:33;;;;;;;;;;;10.20;1.00;;;;;;5562009;25;19927;-67
2024/04/11 01:50:58;;;;;;;;;;;10.20;1.00;;;;;;5561428;25;19927;-68
2024/04/11 01:53:24;;;;;;;;;;;10.20;1.00;;;;;;5561517;25;20404;-67
2024/04/11 01:55:49;;;;;;;;;;;10.20;1.00;;;;;;5561806;25;20394;-67
2024/04/11 01:58:18;;;;;;;;;;;10.10;1.00;;;;;;5561808;25;19927;-67
2024/04/11 02:00:44;;;;;;;;;;;9.70;1.00;;;;;;5561682;25;20377;-67
2024/04/11 02:03:10;;;;;;;;;;;10.10;1.00;;;;;;5561729;25;19931;-67
2024/04/11 02:05:35;;;;;;;;;;;10.10;1.00;;;;;;5561880;25;19927;-67
2024/04/11 02:08:04;;;;;;;;;;;10.10;1.00;;;;;;5561086;25;19995;-68
2024/04/11 02:10:29;;;;;;;;;;;9.80;1.00;;;;;;5560943;25;19937;-67
2024/04/11 02:12:56;;;;;;;;;;;10.10;1.00;;;;;;5561404;25;20387;-67
2024/04/11 02:15:25;;;;;;;;;;;9.90;1.00;;;;;;5561380;25;19935;-67
2024/04/11 02:17:50;;;;;;;;;;;9.60;1.00;;;;;;5561405;25;19959;-67
2024/04/11 02:20:16;;;;;;;;;;;10.10;1.00;;;;;;5560785;25;20330;-67
2024/04/11 02:22:43;;;;;;;;;;;9.70;1.00;;;;;;5561064;25;19939;-67
2024/04/11 02:25:09;;;;;;;;;;;10.10;1.00;;;;;;5561242;25;20334;-68
2024/04/11 02:27:35;;;;;;;;;;;10.10;1.00;;;;;;5561253;25;20356;-68
2024/04/11 02:30:00;;;;;;;;;;;10.00;1.00;;;;;;5528864;25;19931;-67
2024/04/11 02:32:27;;;;;;;;;;;10.10;1.00;;;;;;5564830;25;20338;-67
2024/04/11 02:34:53;;;;;;;;;;;10.00;1.00;;;;;;5564731;25;19935;-68
2024/04/11 02:37:18;;;;;;;;;;;10.00;1.00;;;;;;5564837;25;19997;-67
2024/04/11 02:39:44;;;;;;;;;;;10.00;1.00;;;;;;5564674;25;19930;-67
2024/04/11 02:42:09;;;;;;;;;;;9.70;1.00;;;;;;5565001;25;20378;-67
2024/04/11 02:44:35;;;;;;;;;;;9.70;1.00;;;;;;5565093;25;19938;-68
2024/04/11 02:47:01;;;;;;;;;;;10.10;1.00;;;;;;5564721;25;19938;-67
2024/04/11 02:49:27;;;;;;;;;;;9.80;1.00;;;;;;5564183;25;20612;-67
2024/04/11 02:51:53;;;;;;;;;;;10.00;1.00;;;;;;5564473;25;19994;-67
2024/04/11 02:54:19;;;;;;;;;;;10.20;1.00;;;;;;5564716;25;20575;-67
2024/04/11 02:56:45;;;;;;;;;;;10.10;1.00;;;;;;5565027;25;19934;-67
2024/04/11 02:59:11;;;;;;;;;;;10.10;1.00;;;;;;5564073;25;20342;-68
2024/04/11 03:01:37;;;;;;;;;;;9.90;1.00;;;;;;5564612;25;19934;-67
2024/04/11 03:04:02;;;;;;;;;;;10.20;1.00;;;;;;5531409;25;19927;-67
2024/04/11 03:06:28;;;;;;;;;;;9.80;1.00;;;;;;5564305;25;19952;-67
2024/04/11 03:08:56;;;;;;;;;;;10.10;1.00;;;;;;5563984;25;19931;-68
2024/04/11 03:11:23;;;;;;;;;;;10.20;1.00;;;;;;5564355;25;20271;-68
2024/04/11 03:13:50;;;;;;;;;;;10.30;1.00;;;;;;5564283;25;20693;-68
2024/04/11 03:16:15;;;;;;;;;;;10.20;1.00;;;;;;5563904;25;19998;-68
2024/04/11 03:18:41;;;;;;;;;;;10.30;1.00;;;;;;5564237;25;19935;-68
2024/04/11 03:21:07;;;;;;;;;;;10.30;1.00;;;;;;5563959;25;19930;-68
2024/04/11 03:23:32;;;;;;;;;;;10.20;1.00;;;;;;5564333;25;19934;-68
2024/04/11 03:26:01;;;;;;;;;;;10.20;1.00;;;;;;5564337;25;19934;-69
2024/04/11 03:28:26;;;;;;;;;;;10.20;1.00;;;;;;5564286;25;19926;-69
2024/04/11 03:30:53;;;;;;;;;;;10.20;1.00;;;;;;5563616;25;20273;-69
2024/04/11 03:33:18;;;;;;;;;;;10.20;1.00;;;;;;5563914;25;19927;-68
2024/04/11 03:35:52;;;;;;;;;;;10.10;1.00;;;;;;5564089;25;19934;-68
2024/04/11 03:38:17;;;;;;;;;;;10.10;1.00;;;;;;5564183;25;19937;-68
2024/04/11 03:40:53;;;;;;;;;;;10.20;1.00;;;;;;5563462;25;20248;-68
2024/04/11 03:43:19;;;;;;;;;;;10.10;1.00;;;;;;5564031;25;19934;-68
2024/04/11 03:45:44;;;;;;;;;;;9.70;1.00;;;;;;5563869;25;19927;-68
2024/04/11 03:48:10;;;;;;;;;;;10.00;1.00;;;;;;5563769;25;19927;-69
2024/04/11 03:50:35;;;;;;;;;;;10.10;1.00;;;;;;5563377;25;19934;-68
2024/04/11 03:53:01;;;;;;;;;;;9.90;1.00;;;;;;5563838;25;19931;-68
2024/04/11 03:55:26;;;;;;;;;;;10.00;1.00;;;;;;5564009;25;19933;-68
2024/04/11 03:57:52;;;;;;;;;;;10.00;1.00;;;;;;5563732;25;20277;-68
2024/04/11 04:00:17;;;;;;;;;;;10.00;1.00;;;;;;5530317;25;20015;-68
2024/04/11 04:02:43;;;;;;;;;;;9.70;1.00;;;;;;5563590;25;19955;-68
2024/04/11 04:05:13;;;;;;;;;;;10.00;1.00;;;;;;5563669;25;19994;-68
2024/04/11 04:07:38;;;;;;;;;;;10.20;1.00;;;;;;5563726;25;20088;-69
2024/04/11 04:10:04;;;;;;;;;;;10.20;1.00;;;;;;5563121;25;19938;-68
2024/04/11 04:12:29;;;;;;;;;;;9.80;1.00;;;;;;5563563;25;19994;-68
2024/04/11 04:14:55;;;;;;;;;;;10.00;1.00;;;;;;5563439;25;19953;-68
2024/04/11 04:17:23;;;;;;;;;;;10.20;1.00;;;;;;5563716;25;20331;-68
2024/04/11 04:19:49;;;;;;;;;;;10.20;1.00;;;;;;5563169;25;19934;-68
2024/04/11 04:22:16;;;;;;;;;;;10.10;1.00;;;;;;5563474;25;19927;-68
2024/04/11 04:24:41;;;;;;;;;;;10.10;1.00;;;;;;5563470;25;19975;-68
2024/04/11 04:27:07;;;;;;;;;;;10.20;1.00;;;;;;5563382;25;19963;-69
2024/04/11 04:29:33;;;;;;;;;;;10.30;1.00;;;;;;5562950;25;19927;-68
2024/04/11 04:31:59;;;;;;;;;;;9.90;1.00;;;;;;5563474;25;19939;-67
2024/04/11 04:34:25;;;;;;;;;;;10.40;1.00;;;;;;5563485;25;19934;-68
2024/04/11 04:36:50;;;;;;;;;;;10.60;1.00;;;;;;5563348;25;19927;-68
2024/04/11 04:39:16;;;;;;;;;;;10.60;1.00;;;;;;5562783;25;19933;-68
2024/04/11 04:41:42;;;;;;;;;;;10.60;1.00;;;;;;5563368;25;20312;-68
2024/04/11 04:44:08;;;;;;;;;;;10.60;1.00;;;;;;5563362;25;19927;-68
2024/04/11 04:46:34;;;;;;;;;;;10.70;1.00;;;;;;5563416;25;19927;-68
2024/04/11 04:49:00;;;;;;;;;;;10.80;1.00;;;;;;5562694;25;19927;-67
2024/04/11 04:51:31;;;;;;;;;;;10.70;1.00;;;;;;5563035;25;20015;-68
2024/04/11 04:53:59;;;;;;;;;;;10.60;1.00;;;;;;5561952;25;19927;-68
2024/04/11 04:56:27;;;;;;;;;;;10.60;1.90;;;;;;5563045;25;19940;-69
2024/04/11 04:58:53;;;;;;;;;;;10.60;2.00;;;;;;5562520;25;19934;-69
2024/04/11 05:01:20;;;;;;;;;;;10.60;1.40;;;;;;5562653;25;19933;-68
2024/04/11 05:03:46;;;;;;;;;;;10.70;1.30;;;;;;5562815;25;20312;-68
2024/04/11 05:06:14;;;;;;;;;;;10.70;2.30;;;;;;5562705;25;19960;-69
2024/04/11 05:08:45;;;;;;;;;;;10.60;1.00;;;;;;5562620;25;19927;-68
2024/04/11 05:11:14;;;;;;;;;;;10.60;3.70;;;;;;5562691;25;19938;-68
2024/04/11 05:13:40;;;;;;;;;;;10.30;1.00;;;;;;5562621;25;20298;-69
2024/04/11 05:16:06;;;;;;;;;;;10.60;2.10;;;;;;5562510;25;19995;-69
2024/04/11 05:18:32;;;;;;;;;;;10.50;1.40;;;;;;5562654;25;20274;-69
2024/04/11 05:20:58;;;;;;;;;;;10.70;2.60;;;;;;5562056;25;19942;-69
2024/04/11 05:23:32;;;;;;;;;;;10.70;1.90;;;;;;5562520;25;19961;-68
2024/04/11 05:26:07;;;;;;;;;;;10.60;3.40;;;;;;5562551;25;19934;-68
2024/04/11 05:28:36;;;;;;;;;;;10.80;3.80;;;;;;5562387;25;19927;-68
2024/04/11 05:31:05;;;;;;;;;;;10.50;1.00;;;;;;5561952;25;19936;-69
2024/04/11 05:33:37;;;;;;;;;;;10.40;1.00;;;;;;5562174;25;19959;-68
2024/04/11 05:36:05;;;;;;;;;;;10.50;1.20;;;;;;5562183;25;20439;-69
2024/04/11 05:38:32;;;;;;;;;;;10.60;4.10;;;;;;5562364;25;19975;-68
2024/04/11 05:40:57;;;;;;;;;;;10.90;3.50;;;;;;5561704;25;19927;-69
2024/04/11 05:43:23;;;;;;;;;;;11.00;2.40;;;;;;5562080;25;20385;-69
2024/04/11 05:45:49;;;;;;;;;;;10.80;2.40;;;;;;5561954;25;19933;-69
2024/04/11 05:48:14;;;;;;;;;;;11.10;2.80;;;;;;5561931;25;19993;-68
2024/04/11 05:50:41;;;;;;;;;;;10.90;1.40;;;;;;5561486;25;19938;-69
2024/04/11 05:53:08;;;;;;;;;;;11.10;2.50;;;;;;5561848;25;20263;-69
2024/04/11 05:55:33;;;;;;;;;;;11.30;2.40;;;;;;5561960;25;19931;-69
2024/04/11 05:57:59;;;;;;;;;;;11.30;1.70;;;;;;5561763;25;19934;-68
2024/04/11 06:00:29;;;;;;;;;;;11.30;2.50;;;;;;5561218;25;19934;-69
2024/04/11 06:02:57;;;;;;;;;;;11.00;3.30;;;;;;5561825;25;19927;-69
2024/04/11 06:05:22;;;;;;;;;;;11.10;1.00;;;;;;5563331;25;19934;-68
2024/04/11 06:07:50;;;;;;;;;;;11.50;2.00;;;;;;5565351;25;19927;-68
2024/04/11 06:10:20;;;;;;;;;;;11.60;3.80;;;;;;5564965;25;19995;-68
2024/04/11 06:12:46;;;;;;;;;;;11.30;3.10;;;;;;5565301;25;19934;-69
2024/04/11 06:15:13;;;;;;;;;;;11.70;3.90;;;;;;5565323;25;20444;-68
2024/04/11 06:17:41;;;;;;;;;;;11.50;2.80;;;;;;5565229;25;19927;-69
2024/04/11 06:20:15;;;;;;;;;;;11.80;1.80;;;;;;5564873;25;20262;-69
2024/04/11 06:22:49;;;;;;;;;;;11.60;1.60;;;;;;5565555;25;20287;-69
2024/04/11 06:25:15;;;;;;;;;;;11.50;1.00;;;;;;5565326;25;20363;-69
2024/04/11 06:27:41;;;;;;;;;;;11.60;1.00;;;;;;5565251;25;19934;-69
2024/04/11 06:30:12;;;;;;;;;;;11.60;1.00;;;;;;5564656;25;19926;-68
2024/04/11 06:32:38;;;;;;;;;;;11.60;1.00;;;;;;5565345;25;19927;-68
2024/04/11 06:35:04;;;;;;;;;;;11.60;1.00;;;;;;5565088;25;19975;-69
2024/04/11 06:37:31;;;;;;;;;;;11.60;1.00;;;;;;5564992;25;19927;-69
2024/04/11 06:39:58;;;;;;;;;;;11.60;1.00;;;;;;5564549;25;19931;-69
2024/04/11 06:42:24;;;;;;;;;;;11.90;2.30;;;;;;5564879;25;19994;-68
2024/04/11 06:44:49;;;;;;;;;;;11.60;1.50;;;;;;5564747;25;20356;-69
2024/04/11 06:47:18;;;;;;;;;;;12.10;3.30;;;;;;5564855;25;19927;-68
2024/04/11 06:49:45;;;;;;;;;;;12.00;4.10;;;;;;5564405;25;19934;-68
2024/04/11 06:52:12;;;;;;;;;;;11.80;4.00;;;;;;5564671;25;19935;-69
2024/04/11 06:54:40;;;;;;;;;;;11.80;1.20;;;;;;5564907;25;19937;-69
2024/04/11 06:57:07;;;;;;;;;;;12.20;2.00;;;;;;5564784;25;19952;-68
2024/04/11 06:59:32;;;;;;;;;;;11.90;1.90;;;;;;5564016;25;19943;-68
2024/04/11 07:01:58;;;;;;;;;;;12.00;1.00;;;;;;5531614;25;19995;-69
2024/04/11 07:04:23;;;;;;;;;;;12.20;2.10;;;;;;5564610;25;19927;-69
2024/04/11 07:06:49;;;;;;;;;;;12.40;1.50;;;;;;5564675;25;19955;-69
2024/04/11 07:09:14;;;;;;;;;;;12.40;1.50;;;;;;5563998;25;19927;-69
2024/04/11 07:11:40;;;;;;;;;;;12.40;1.30;;;;;;5564435;25;19927;-69
2024/04/11 07:14:15;;;;;;;;;;;12.70;1.40;;;;;;5559642;25;19927;-69
2024/04/11 07:16:44;;;;;;;;;;;12.60;1.00;;;;;;5542208;25;19935;-69
2024/04/11 07:19:14;;;;;;;;;;;12.80;1.70;;;;;;5524967;25;20623;-69
2024/04/11 07:21:39;;;;;;;;;;;12.60;1.00;;;;;;5526018;25;19934;-69
2024/04/11 07:24:06;;;;;;;;;;;13.00;1.00;;;;;;5526781;26;19928;-68
2024/04/11 07:26:32;;;;;;;;;;;12.80;1.00;;;;;;5526729;26;20351;-68
2024/04/11 07:28:59;;;;;;;;;;;12.80;1.00;;;;;;5526165;25;19935;-69
2024/04/11 07:31:26;;;;;;;;;;;13.00;1.00;;;;;;5526619;26;19935;-68
2024/04/11 07:33:51;;;;;;;;;;;12.90;1.00;;;;;;5526583;26;19928;-68
2024/04/11 07:36:21;;;;;;;;;;;13.00;2.20;;;;;;5526783;26;20304;-69
2024/04/11 07:38:47;;;;;;;;;;;12.90;1.20;;;;;;5526124;25;20375;-69
2024/04/11 07:41:20;;;;;;;;;;;12.90;1.00;;;;;;5526474;25;19935;-69
2024/04/11 07:43:52;;;;;;;;;;;12.90;2.60;;;;;;5526522;25;19927;-68
2024/04/11 07:46:18;;;;;;;;;;;13.00;1.00;;;;;;5526627;25;20317;-68
2024/04/11 07:48:53;;;;;;;;;;;13.30;1.00;;;;;;5526845;26;19991;-69
2024/04/11 07:51:18;;;;;;;;;;;13.20;1.20;;;;;;5526390;26;19928;-69
2024/04/11 07:53:46;;;;;;;;;;;13.20;2.00;;;;;;5526452;25;19995;-68
2024/04/11 07:56:19;;;;;;;;;;;13.30;2.70;;;;;;5526535;25;19939;-68
2024/04/11 07:58:48;;;;;;;;;;;13.60;2.00;;;;;;5525920;26;19927;-69
2024/04/11 08:01:14;;;;;;;;;;;13.60;1.00;;;;;;5526229;25;20261;-69
2024/04/11 08:03:40;;;;;;;;;;;13.60;1.00;;;;;;5526437;26;19931;-69
2024/04/11 08:06:10;;;;;;;;;;;13.70;1.00;;;;;;5530693;25;19935;-69
2024/04/11 08:08:38;;;;;;;;;;;13.80;1.00;;;;;;5527537;25;20374;-68
2024/04/11 08:11:06;;;;;;;;;;;13.80;1.00;;;;;;5533039;25;19934;-68
2024/04/11 08:13:34;;;;;;;;;;;13.90;1.00;;;;;;5525590;25;20264;-68
2024/04/11 08:16:00;;;;;;;;;;;14.10;1.00;;;;;;5525744;25;19927;-68
2024/04/11 08:18:29;;;;;;;;;;;14.20;1.00;;;;;;5525711;25;20269;-68
2024/04/11 08:20:57;;;;;;;;;;;14.30;1.00;;;;;;5525474;26;19996;-68
2024/04/11 08:23:24;;;;;;;;;;;14.40;1.00;;;;;;5526170;26;19928;-68
2024/04/11 08:25:51;;;;;;;;;;;14.50;1.00;;;;;;5526095;26;19936;-68
2024/04/11 08:28:16;;;;;;;;;;;14.60;1.00;;;;;;5524295;26;19935;-67
2024/04/11 08:30:44;;;;;;;;;;;14.60;1.00;;;;;;5524887;26;19927;-67
2024/04/11 08:33:09;;;;;;;;;;;14.60;1.00;;;;;;5525565;26;20307;-67
2024/04/11 08:35:35;;;;;;;;;;;14.80;1.00;;;;;;5525412;25;19935;-68
2024/04/11 08:38:03;;;;;;;;;;;14.80;1.00;;;;;;5525529;26;19931;-67
2024/04/11 08:40:30;;;;;;;;;;;14.90;1.00;;;;;;5525240;26;19936;-67
2024/04/11 08:42:56;;;;;;;;;;;15.00;1.00;;;;;;5525284;26;20324;-67
2024/04/11 08:45:23;;;;;;;;;;;15.40;1.00;;;;;;5525347;26;19938;-67
2024/04/11 08:47:49;;;;;;;;;;;15.20;1.00;;;;;;5525473;26;19927;-67
2024/04/11 08:50:14;;;;;;;;;;;15.10;1.00;;;;;;5525301;26;19935;-67
2024/04/11 08:52:44;;;;;;;;;;;15.20;1.00;;;;;;5525145;26;20290;-67
2024/04/11 08:55:12;;;;;;;;;;;15.20;1.00;;;;;;5525202;26;20685;-67
2024/04/11 08:57:37;;;;;;;;;;;15.10;1.00;;;;;;5525136;26;19927;-67
2024/04/11 09:00:09;;;;;;;;;;;15.30;1.00;;;;;;5524867;26;19934;-67
2024/04/11 09:02:37;;;;;;;;;;;15.30;1.00;;;;;;5531588;25;19935;-67
2024/04/11 09:05:05;;;;;;;;;;;15.40;1.00;;;;;;5524977;25;19954;-68
2024/04/11 09:07:32;;;;;;;;;;;15.40;1.00;;;;;;5524905;25;19995;-67
2024/04/11 09:10:04;;;;;;;;;;;15.40;1.00;;;;;;5524448;25;19942;-68
2024/04/11 09:12:30;;;;;;;;;;;15.50;1.00;;;;;;5524629;25;20289;-68
2024/04/11 09:14:55;;;;;;;;;;;15.60;1.00;;;;;;5535280;25;20438;-68
2024/04/11 09:17:21;;;;;;;;;;;15.50;1.00;;;;;;5529452;25;19939;-68
2024/04/11 09:19:49;;;;;;;;;;;15.60;1.00;;;;;;5524346;26;20382;-68
2024/04/11 09:22:14;;;;;;;;;;;15.60;1.00;;;;;;5524451;25;19996;-68
2024/04/11 09:24:43;;;;;;;;;;;15.70;1.00;;;;;;5524685;25;19939;-68
2024/04/11 09:27:08;;;;;;;;;;;15.90;1.00;;;;;;5524733;25;19928;-68
2024/04/11 09:29:35;;;;;;;;;;;16.00;1.00;;;;;;5524107;25;20002;-68
2024/04/11 09:32:03;;;;;;;;;;;16.00;1.00;;;;;;5524341;26;19977;-68
2024/04/11 09:34:32;;;;;;;;;;;16.10;1.00;;;;;;5524399;25;20514;-67
2024/04/11 09:37:04;;;;;;;;;;;16.30;1.00;;;;;;5524732;26;20028;-67
2024/04/11 09:39:49;;;;;;;;;;;16.40;1.00;;;;;;5525930;25;20272;-67
2024/04/11 09:42:25;;;;;;;;;;;16.40;1.00;;;;;;5527860;25;19935;-68
2024/04/11 09:44:52;;;;;;;;;;;16.40;1.00;;;;;;5527897;25;19927;-68
2024/04/11 09:47:31;;;;;;;;;;;16.30;1.00;;;;;;5527937;26;19934;-67
2024/04/11 09:50:00;;;;;;;;;;;16.50;1.00;;;;;;5527927;26;19995;-67
2024/04/11 09:52:27;;;;;;;;;;;16.50;1.00;;;;;;5527641;25;20276;-68
2024/04/11 09:54:56;;;;;;;;;;;16.60;1.00;;;;;;5527735;26;19931;-68
2024/04/11 09:57:24;;;;;;;;;;;16.60;1.00;;;;;;5527753;26;19934;-68
2024/04/11 09:59:50;;;;;;;;;;;16.70;1.00;;;;;;5527172;25;19955;-68
2024/04/11 10:02:16;;;;;;;;;;;16.90;1.00;;;;;;5527674;25;19927;-67
2024/04/11 10:04:42;;;;;;;;;;;17.00;1.00;;;;;;5527674;25;19936;-69
2024/04/11 10:07:08;;;;;;;;;;;17.10;1.00;;;;;;5527328;25;20316;-68
2024/04/11 10:09:34;;;;;;;;;;;17.30;1.00;;;;;;5526994;26;19994;-68
2024/04/11 10:12:03;;;;;;;;;;;17.40;1.00;;;;;;5527457;26;19927;-68
2024/04/11 10:14:31;;;;;;;;;;;17.30;1.00;;;;;;5527441;25;19933;-67
2024/04/11 10:17:01;;;;;;;;;;;17.40;1.00;;;;;;5528086;25;19935;-68
2024/04/11 10:19:27;;;;;;;;;;;17.40;1.00;;;;;;5526887;25;19935;-68
2024/04/11 10:22:00;;;;;;;;;;;17.40;1.00;;;;;;5563261;25;19930;-68
2024/04/11 10:24:31;;;;;;;;;;;17.40;1.00;;;;;;5564742;25;19926;-67
2024/04/11 10:27:09;;;;;;;;;;;17.30;1.00;;;;;;5564998;25;19934;-68
2024/04/11 10:29:46;;;;;;;;;;;17.60;1.00;;;;;;5564183;25;19966;-67
2024/04/11 10:32:22;;;;;;;;;;;17.80;1.00;;;;;;5564722;25;19934;-67
2024/04/11 10:34:56;;;;;;;;;;;18.00;1.00;;;;;;5564595;25;20320;-67
2024/04/11 10:37:23;;;;;;;;;;;18.10;1.00;;;;;;5564633;25;19931;-67
2024/04/11 10:39:54;;;;;;;;;;;18.00;1.00;;;;;;5563900;25;19926;-68
2024/04/11 10:42:20;;;;;;;;;;;17.90;1.00;;;;;;5564459;25;19934;-67
2024/04/11 10:44:45;;;;;;;;;;;18.10;1.00;;;;;;5564431;25;19954;-68
2024/04/11 10:47:13;;;;;;;;;;;17.90;1.00;;;;;;5564556;25;19938;-68
2024/04/11 10:49:41;;;;;;;;;;;17.90;1.00;;;;;;5563822;25;19937;-68
2024/04/11 10:52:10;;;;;;;;;;;17.80;1.00;;;;;;5563626;25;19967;-68
2024/04/11 10:54:43;;;;;;;;;;;18.00;1.00;;;;;;5555251;25;20379;-68
2024/04/11 10:57:12;;;;;;;;;;;17.90;1.00;;;;;;5525119;25;19927;-68
2024/04/11 10:59:50;;;;;;;;;;;17.80;1.00;;;;;;5525854;25;19995;-67
2024/04/11 11:02:19;;;;;;;;;;;17.80;1.00;;;;;;5527054;25;19934;-68
2024/04/11 11:04:50;;;;;;;;;;;17.60;1.00;;;;;;5526653;26;19981;-67
2024/04/11 11:07:21;;;;;;;;;;;17.60;1.00;;;;;;5526813;25;19935;-67
2024/04/11 11:09:51;;;;;;;;;;;17.60;1.00;;;;;;5526503;26;19935;-68
2024/04/11 11:12:18;;;;;;;;;;;17.50;1.00;;;;;;5526850;25;20363;-67
2024/04/11 11:14:45;;;;;;;;;;;17.50;1.00;;;;;;5526869;25;19999;-68
2024/04/11 11:17:17;;;;;;;;;;;17.40;1.00;;;;;;5527040;25;19931;-67
2024/04/11 11:19:43;;;;;;;;;;;17.20;1.00;;;;;;5526444;25;19927;-67
2024/04/11 11:22:09;;;;;;;;;;;17.10;1.00;;;;;;5526910;25;20363;-68
2024/04/11 11:24:34;;;;;;;;;;;17.00;1.00;;;;;;5526784;25;20017;-68
2024/04/11 11:27:00;;;;;;;;;;;16.80;1.00;;;;;;5527485;26;20371;-68
2024/04/11 11:29:27;;;;;;;;;;;16.70;1.00;;;;;;5526438;25;19927;-68
2024/04/11 11:32:01;;;;;;;;;;;16.80;1.00;;;;;;5526610;25;19952;-68
2024/04/11 11:34:27;;;;;;;;;;;16.80;1.00;;;;;;5526550;25;20442;-68
2024/04/11 11:36:58;;;;;;;;;;;16.70;1.00;;;;;;5526534;26;19995;-68
2024/04/11 11:39:26;;;;;;;;;;;16.80;1.00;;;;;;5526014;25;19932;-67
2024/04/11 11:42:52;;;;;;;;;;;16.90;1.00;;;;;;5526420;25;19927;-67
2024/04/11 11:45:08;;;;;;;;;;;16.80;1.00;;;;;;5502344;26;19927;-68
2024/04/11 11:47:33;;;;;;;;;;;16.50;1.60;;;;;;5498947;26;19953;-68
2024/04/11 11:50:17;;;;;;;;;;;16.40;3.20;;;;;;5526385;26;19928;-68
2024/04/11 11:52:44;;;;;;;;;;;16.50;4.30;;;;;;5526340;26;20279;-67
2024/04/11 11:55:19;;;;;;;;;;;16.40;15.50;;;;;;5526887;26;20392;-67
2024/04/11 11:57:47;;;;;;;;;;;16.20;15.60;;;;;;5526566;26;19927;-68
2024/04/11 12:00:19;;;;;;;;;;;16.30;14.00;;;;;;5526292;26;20359;-68
2024/04/11 12:02:47;;;;;;;;;;;16.10;16.40;;;;;;5526328;26;19927;-67
2024/04/11 12:05:14;;;;;;;;;;;16.30;17.40;;;;;;5526348;26;20255;-67
2024/04/11 12:07:43;;;;;;;;;;;16.40;20.40;;;;;;5526108;26;19934;-68
2024/04/11 12:10:14;;;;;;;;;;;16.30;22.60;;;;;;5525814;26;19959;-68
2024/04/11 12:12:43;;;;;;;;;;;16.20;21.00;;;;;;5526429;26;19927;-67
2024/04/11 12:15:09;;;;;;;;;;;16.20;25.80;;;;;;5526116;26;19934;-68
2024/04/11 12:17:35;;;;;;;;;;;16.50;26.80;;;;;;5525977;26;19927;-68
2024/04/11 12:20:06;;;;;;;;;;;16.40;25.40;;;;;;5525670;26;20025;-67
2024/04/11 12:22:33;;;;;;;;;;;16.60;17.80;;;;;;5525857;25;20325;-68
2024/04/11 12:25:01;;;;;;;;;;;16.60;15.20;;;;;;5526120;26;20367;-68
2024/04/11 12:27:29;;;;;;;;;;;16.90;17.00;;;;;;5526013;26;19934;-68
2024/04/11 12:29:58;;;;;;;;;;;16.80;9.10;;;;;;5525879;26;20322;-68
2024/04/11 12:32:25;;;;;;;;;;;16.80;15.40;;;;;;5525961;26;19928;-68
2024/04/11 12:34:55;;;;;;;;;;;16.90;18.00;;;;;;5493360;26;20291;-67
2024/04/11 12:37:24;;;;;;;;;;;16.90;17.00;;;;;;5525485;26;19931;-68
2024/04/11 12:39:56;;;;;;;;;;;17.00;19.50;;;;;;5525224;25;20268;-68
2024/04/11 12:42:22;;;;;;;;;;;17.10;17.30;;;;;;5525237;26;19935;-68
2024/04/11 12:44:48;;;;;;;;;;;16.90;17.00;;;;;;5524530;26;19959;-68
2024/04/11 12:47:13;;;;;;;;;;;16.90;13.10;;;;;;5525623;26;19939;-68
2024/04/11 12:49:48;;;;;;;;;;;17.10;13.50;;;;;;5525235;26;19934;-68
2024/04/11 12:52:15;;;;;;;;;;;17.10;12.90;;;;;;5524901;25;19928;-67
2024/04/11 12:54:41;;;;;;;;;;;17.40;11.50;;;;;;5525007;25;20502;-67
2024/04/11 12:57:06;;;;;;;;;;;17.40;7.60;;;;;;5525397;25;19961;-67
2024/04/11 12:59:35;;;;;;;;;;;17.40;6.90;;;;;;5525109;25;19995;-67
2024/04/11 13:02:01;;;;;;;;;;;17.50;3.20;;;;;;5525272;25;19943;-68
2024/04/11 13:04:32;;;;;;;;;;;17.30;7.40;;;;;;5525143;25;19932;-67
2024/04/11 13:07:10;;;;;;;;;;;17.50;9.10;;;;;;5525407;26;19977;-68
2024/04/11 13:09:48;;;;;;;;;;;17.10;4.60;;;;;;5524621;25;19931;-67
2024/04/11 13:12:16;;;;;;;;;;;17.30;10.20;;;;;;5524874;26;19928;-68
2024/04/11 13:14:55;;;;;;;;;;;17.40;9.40;;;;;;5524089;25;20271;-67
2024/04/11 13:17:23;;;;;;;;;;;17.40;8.70;;;;;;5525108;25;19927;-67
2024/04/11 13:19:49;;;;;;;;;;;17.40;10.50;;;;;;5524416;25;20263;-67
2024/04/11 13:22:14;;;;;;;;;;;17.30;13.70;;;;;;5524983;26;19933;-67
2024/04/11 13:24:59;;;;;;;;;;;17.30;9.40;;;;;;5524211;25;20166;-67
2024/04/11 13:27:28;;;;;;;;;;;17.30;8.10;;;;;;5524943;25;19934;-68
2024/04/11 13:29:59;;;;;;;;;;;17.50;7.70;;;;;;5524305;25;19927;-68
2024/04/11 13:32:30;;;;;;;;;;;17.50;8.30;;;;;;5524759;25;19927;-68
2024/04/11 13:35:06;;;;;;;;;;;17.50;6.60;;;;;;5524879;25;19928;-68
2024/04/11 13:37:38;;;;;;;;;;;17.40;4.90;;;;;;5524127;25;20278;-68
2024/04/11 13:42:52;;;;;;;;;;;17.70;5.20;;;;;;5524714;25;19975;-68
2024/04/11 13:45:24;;;;;;;;;;;18.00;6.80;;;;;;5524457;25;19971;-69
2024/04/11 13:47:50;;;;;;;;;;;17.60;3.00;;;;;;5524377;25;19943;-69
2024/04/11 13:50:34;;;;;;;;;;;17.70;3.50;;;;;;5523492;26;20366;-68
2024/04/11 13:53:06;;;;;;;;;;;17.60;3.50;;;;;;5524445;26;19927;-69
2024/04/11 13:55:41;;;;;;;;;;;17.60;1.40;;;;;;5524312;25;19963;-68
2024/04/11 13:58:08;;;;;;;;;;;17.60;2.20;;;;;;5524425;25;19935;-68
2024/04/11 14:00:36;;;;;;;;;;;17.70;8.10;;;;;;5523769;25;19934;-68
2024/04/11 14:03:22;;;;;;;;;;;17.50;3.20;;;;;;5524309;25;19937;-69
2024/04/11 14:05:59;;;;;;;;;;;17.70;8.00;;;;;;5524229;25;19928;-68
2024/04/11 14:08:30;;;;;;;;;;;17.80;5.60;;;;;;5524156;26;20324;-68
2024/04/11 14:10:56;;;;;;;;;;;17.70;2.00;;;;;;5523683;25;20524;-68
2024/04/11 14:13:22;;;;;;;;;;;17.80;5.60;;;;;;5524148;26;19928;-68
2024/04/11 14:15:52;;;;;;;;;;;17.90;7.00;;;;;;5524002;26;19936;-68
2024/04/11 14:18:25;;;;;;;;;;;18.00;5.40;;;;;;5524022;26;19940;-68
2024/04/11 14:20:57;;;;;;;;;;;18.20;5.90;;;;;;5523410;26;20271;-68
2024/04/11 14:26:06;;;;;;;;;;;18.60;1.00;;;;;;5525316;26;20001;-68
2024/04/11 14:28:34;;;;;;;;;;;18.80;1.00;;;;;;5527720;26;19944;-68
2024/04/11 14:31:08;;;;;;;;;;;19.30;1.00;;;;;;5527218;26;19927;-68
2024/04/11 14:34:19;;;;;;;;;;;20.40;1.00;;;;;;5527260;26;19939;-68
2024/04/11 14:36:36;;;;;;;;;;;20.80;1.00;;;;;;5527090;25;19939;-68
2024/04/11 14:39:05;;;;;;;;;;;21.00;1.00;;;;;;5527321;26;19935;-68